sensor_id;sensor_type;location;lat;lon;timestamp;temperature;humidity
9925;DHT22;5001;51.674;7.868;2022-11-27T00:02:08;5.10;26.50
9925;DHT22;5001;51.674;7.868;2022-11-27T00:04:35;4.90;57.80
9925;DHT22;5001;51.674;7.868;2022-11-27T00:07:01;4.80;95.60
9925;DHT22;5001;51.674;7.868;2022-11-27T00:09:28;4.70;99.90
9925;DHT22;5001;51.674;7.868;2022-11-27T00:11:55;4.60;99.90
9925;DHT22;5001;51.674;7.868;2022-11-27T00:14:22;4.50;99.90
9925;DHT22;5001;51.674;7.868;2022-11-27T00:16:49;4.40;99.90
9925;DHT22;5001;51.674;7.868;2022-11-27T00:19:16;4.20;99.90
9925;DHT22;5001;51.674;7.868;2022-11-27T00:21:43;4.10;99.90
9925;DHT22;5001;51.674;7.868;2022-11-27T00:24:10;4.00;99.90
9925;DHT22;5001;51.674;7.868;2022-11-27T00:26:37;3.90;99.90
9925;DHT22;5001;51.674;7.868;2022-11-27T00:29:05;3.90;99.90
9925;DHT22;5001;51.674;7.868;2022-11-27T00:31:33;3.90;1.00
9925;DHT22;5001;51.674;7.868;2022-11-27T00:34:02;3.90;1.00
9925;DHT22;5001;51.674;7.868;2022-11-27T00:36:31;3.90;1.00
9925;DHT22;5001;51.674;7.868;2022-11-27T00:38:58;4.00;1.00
9925;DHT22;5001;51.674;7.868;2022-11-27T00:41:27;4.00;1.00
9925;DHT22;5001;51.674;7.868;2022-11-27T00:43:55;4.20;1.00
9925;DHT22;5001;51.674;7.868;2022-11-27T00:46:25;4.20;99.90
9925;DHT22;5001;51.674;7.868;2022-11-27T00:48:56;4.20;99.90
9925;DHT22;5001;51.674;7.868;2022-11-27T00:51:24;4.10;99.90
9925;DHT22;5001;51.674;7.868;2022-11-27T00:53:52;4.10;99.90
9925;DHT22;5001;51.674;7.868;2022-11-27T00:56:25;4.10;99.90
9925;DHT22;5001;51.674;7.868;2022-11-27T00:58:52;4.10;99.90
9925;DHT22;5001;51.674;7.868;2022-11-27T01:01:22;4.00;99.90
9925;DHT22;5001;51.674;7.868;2022-11-27T01:03:50;4.00;99.90
9925;DHT22;5001;51.674;7.868;2022-11-27T01:06:18;4.00;99.90
9925;DHT22;5001;51.674;7.868;2022-11-27T01:08:45;4.00;99.90
9925;DHT22;5001;51.674;7.868;2022-11-27T01:11:15;4.00;99.90
9925;DHT22;5001;51.674;7.868;2022-11-27T01:13:42;4.00;99.90
9925;DHT22;5001;51.674;7.868;2022-11-27T01:16:15;3.90;99.90
9925;DHT22;5001;51.674;7.868;2022-11-27T01:18:44;3.80;99.90
9925;DHT22;5001;51.674;7.868;2022-11-27T01:21:12;3.70;99.90
9925;DHT22;5001;51.674;7.868;2022-11-27T01:23:40;3.60;99.90
9925;DHT22;5001;51.674;7.868;2022-11-27T01:26:08;3.60;1.00
9925;DHT22;5001;51.674;7.868;2022-11-27T01:28:36;3.50;1.00
9925;DHT22;5001;51.674;7.868;2022-11-27T01:31:11;3.50;1.00
9925;DHT22;5001;51.674;7.868;2022-11-27T01:33:38;3.40;1.00
9925;DHT22;5001;51.674;7.868;2022-11-27T01:36:07;3.30;1.00
9925;DHT22;5001;51.674;7.868;2022-11-27T01:38:34;3.20;1.00
9925;DHT22;5001;51.674;7.868;2022-11-27T01:41:04;3.20;1.00
9925;DHT22;5001;51.674;7.868;2022-11-27T01:43:52;3.10;1.00
9925;DHT22;5001;51.674;7.868;2022-11-27T01:46:38;2.90;1.00
9925;DHT22;5001;51.674;7.868;2022-11-27T01:51:36;2.80;1.00
9925;DHT22;5001;51.674;7.868;2022-11-27T01:54:04;2.90;1.00
9925;DHT22;5001;51.674;7.868;2022-11-27T01:56:31;2.90;1.00
9925;DHT22;5001;51.674;7.868;2022-11-27T01:58:59;2.80;1.00
9925;DHT22;5001;51.674;7.868;2022-11-27T02:01:26;2.80;1.00
9925;DHT22;5001;51.674;7.868;2022-11-27T02:03:56;2.80;1.00
9925;DHT22;5001;51.674;7.868;2022-11-27T02:06:24;2.80;1.00
9925;DHT22;5001;51.674;7.868;2022-11-27T02:08:51;2.80;1.00
9925;DHT22;5001;51.674;7.868;2022-11-27T02:11:30;2.80;1.50
9925;DHT22;5001;51.674;7.868;2022-11-27T02:22:31;2.60;74.00
9925;DHT22;5001;51.674;7.868;2022-11-27T02:28:17;2.50;1.00
9925;DHT22;5001;51.674;7.868;2022-11-27T02:30:43;2.50;94.10
9925;DHT22;5001;51.674;7.868;2022-11-27T02:33:15;2.60;99.90
9925;DHT22;5001;51.674;7.868;2022-11-27T02:35:51;2.60;99.90
9925;DHT22;5001;51.674;7.868;2022-11-27T02:38:28;2.60;99.90
9925;DHT22;5001;51.674;7.868;2022-11-27T02:41:58;2.60;99.90
9925;DHT22;5001;51.674;7.868;2022-11-27T02:43:52;2.60;99.90
9925;DHT22;5001;51.674;7.868;2022-11-27T02:46:20;2.70;99.90
9925;DHT22;5001;51.674;7.868;2022-11-27T02:49:00;2.70;26.60
9925;DHT22;5001;51.674;7.868;2022-11-27T02:51:34;2.60;1.00
9925;DHT22;5001;51.674;7.868;2022-11-27T02:54:08;2.40;1.00
9925;DHT22;5001;51.674;7.868;2022-11-27T02:56:37;2.40;13.30
9925;DHT22;5001;51.674;7.868;2022-11-27T02:59:09;2.40;92.50
9925;DHT22;5001;51.674;7.868;2022-11-27T03:01:43;2.40;67.40
9925;DHT22;5001;51.674;7.868;2022-11-27T03:04:16;2.40;99.90
9925;DHT22;5001;51.674;7.868;2022-11-27T03:06:52;2.40;99.90
9925;DHT22;5001;51.674;7.868;2022-11-27T03:09:35;2.40;95.20
9925;DHT22;5001;51.674;7.868;2022-11-27T03:12:05;2.40;27.30
9925;DHT22;5001;51.674;7.868;2022-11-27T03:14:33;2.40;1.00
9925;DHT22;5001;51.674;7.868;2022-11-27T03:19:47;2.50;1.00
9925;DHT22;5001;51.674;7.868;2022-11-27T03:22:16;2.70;1.00
9925;DHT22;5001;51.674;7.868;2022-11-27T03:24:43;2.90;99.90
9925;DHT22;5001;51.674;7.868;2022-11-27T03:27:16;2.80;99.90
9925;DHT22;5001;51.674;7.868;2022-11-27T03:29:48;2.90;99.90
9925;DHT22;5001;51.674;7.868;2022-11-27T03:32:17;2.90;99.90
9925;DHT22;5001;51.674;7.868;2022-11-27T03:34:45;2.90;99.90
9925;DHT22;5001;51.674;7.868;2022-11-27T03:37:13;3.00;99.90
9925;DHT22;5001;51.674;7.868;2022-11-27T03:39:41;2.90;99.90
9925;DHT22;5001;51.674;7.868;2022-11-27T03:42:37;3.00;99.90
9925;DHT22;5001;51.674;7.868;2022-11-27T03:53:18;2.80;99.90
9925;DHT22;5001;51.674;7.868;2022-11-27T04:01:11;2.70;99.90
9925;DHT22;5001;51.674;7.868;2022-11-27T04:03:40;2.60;99.90
9925;DHT22;5001;51.674;7.868;2022-11-27T04:06:07;2.50;99.90
9925;DHT22;5001;51.674;7.868;2022-11-27T04:08:34;2.50;99.90
9925;DHT22;5001;51.674;7.868;2022-11-27T04:11:01;2.40;99.90
9925;DHT22;5001;51.674;7.868;2022-11-27T04:13:28;2.30;99.90
9925;DHT22;5001;51.674;7.868;2022-11-27T04:15:54;2.30;99.90
9925;DHT22;5001;51.674;7.868;2022-11-27T04:18:22;2.20;1.00
9925;DHT22;5001;51.674;7.868;2022-11-27T04:20:48;2.20;1.00
9925;DHT22;5001;51.674;7.868;2022-11-27T04:23:15;2.10;1.00
9925;DHT22;5001;51.674;7.868;2022-11-27T04:25:42;2.10;1.00
9925;DHT22;5001;51.674;7.868;2022-11-27T04:28:09;2.10;1.00
9925;DHT22;5001;51.674;7.868;2022-11-27T04:30:36;2.10;1.00
9925;DHT22;5001;51.674;7.868;2022-11-27T04:33:03;2.00;1.00
9925;DHT22;5001;51.674;7.868;2022-11-27T04:35:30;1.90;1.00
9925;DHT22;5001;51.674;7.868;2022-11-27T04:37:57;1.90;1.00
9925;DHT22;5001;51.674;7.868;2022-11-27T04:40:24;1.90;1.00
9925;DHT22;5001;51.674;7.868;2022-11-27T04:42:52;1.90;1.00
9925;DHT22;5001;51.674;7.868;2022-11-27T04:45:19;1.80;1.00
9925;DHT22;5001;51.674;7.868;2022-11-27T04:47:46;1.80;1.00
9925;DHT22;5001;51.674;7.868;2022-11-27T04:50:13;1.80;1.00
9925;DHT22;5001;51.674;7.868;2022-11-27T04:52:40;1.70;1.00
9925;DHT22;5001;51.674;7.868;2022-11-27T04:55:07;1.70;1.00
9925;DHT22;5001;51.674;7.868;2022-11-27T04:57:34;1.70;1.00
9925;DHT22;5001;51.674;7.868;2022-11-27T05:00:02;1.70;1.00
9925;DHT22;5001;51.674;7.868;2022-11-27T05:02:30;1.80;1.00
9925;DHT22;5001;51.674;7.868;2022-11-27T05:04:57;1.80;1.00
9925;DHT22;5001;51.674;7.868;2022-11-27T05:07:24;1.80;1.00
9925;DHT22;5001;51.674;7.868;2022-11-27T05:09:51;1.80;1.00
9925;DHT22;5001;51.674;7.868;2022-11-27T05:12:18;1.80;1.00
9925;DHT22;5001;51.674;7.868;2022-11-27T05:14:45;1.90;1.00
9925;DHT22;5001;51.674;7.868;2022-11-27T05:17:12;1.90;1.00
9925;DHT22;5001;51.674;7.868;2022-11-27T05:19:39;2.00;1.00
9925;DHT22;5001;51.674;7.868;2022-11-27T05:22:06;2.10;1.00
9925;DHT22;5001;51.674;7.868;2022-11-27T05:24:32;2.10;1.00
9925;DHT22;5001;51.674;7.868;2022-11-27T05:26:59;2.20;1.00
9925;DHT22;5001;51.674;7.868;2022-11-27T05:29:26;2.20;99.90
9925;DHT22;5001;51.674;7.868;2022-11-27T05:31:53;2.20;99.90
9925;DHT22;5001;51.674;7.868;2022-11-27T05:34:20;2.30;99.90
9925;DHT22;5001;51.674;7.868;2022-11-27T05:36:47;2.40;99.90
9925;DHT22;5001;51.674;7.868;2022-11-27T05:39:15;2.50;99.90
9925;DHT22;5001;51.674;7.868;2022-11-27T05:41:42;2.50;99.90
9925;DHT22;5001;51.674;7.868;2022-11-27T05:44:12;2.60;99.90
9925;DHT22;5001;51.674;7.868;2022-11-27T05:46:39;2.70;99.90
9925;DHT22;5001;51.674;7.868;2022-11-27T05:49:06;2.70;84.20
9925;DHT22;5001;51.674;7.868;2022-11-27T05:51:33;2.80;41.90
9925;DHT22;5001;51.674;7.868;2022-11-27T05:54:00;2.90;12.80
9925;DHT22;5001;51.674;7.868;2022-11-27T05:56:27;3.10;1.00
9925;DHT22;5001;51.674;7.868;2022-11-27T05:58:54;3.20;1.00
9925;DHT22;5001;51.674;7.868;2022-11-27T06:01:21;3.30;1.00
9925;DHT22;5001;51.674;7.868;2022-11-27T06:03:48;3.40;1.00
9925;DHT22;5001;51.674;7.868;2022-11-27T06:06:17;3.50;1.00
9925;DHT22;5001;51.674;7.868;2022-11-27T06:08:45;3.40;1.00
9925;DHT22;5001;51.674;7.868;2022-11-27T06:11:20;3.30;1.00
9925;DHT22;5001;51.674;7.868;2022-11-27T06:13:48;3.20;1.00
9925;DHT22;5001;51.674;7.868;2022-11-27T06:16:20;3.10;1.00
9925;DHT22;5001;51.674;7.868;2022-11-27T06:18:52;3.10;1.00
9925;DHT22;5001;51.674;7.868;2022-11-27T06:21:21;3.00;1.00
9925;DHT22;5001;51.674;7.868;2022-11-27T06:23:51;3.00;1.00
9925;DHT22;5001;51.674;7.868;2022-11-27T06:26:21;3.00;1.00
9925;DHT22;5001;51.674;7.868;2022-11-27T06:28:49;3.10;1.00
9925;DHT22;5001;51.674;7.868;2022-11-27T06:31:21;3.10;1.00
9925;DHT22;5001;51.674;7.868;2022-11-27T06:33:50;3.00;1.00
9925;DHT22;5001;51.674;7.868;2022-11-27T06:36:17;3.00;1.00
9925;DHT22;5001;51.674;7.868;2022-11-27T06:38:45;2.90;1.00
9925;DHT22;5001;51.674;7.868;2022-11-27T06:41:14;3.00;1.00
9925;DHT22;5001;51.674;7.868;2022-11-27T06:43:41;2.90;1.00
9925;DHT22;5001;51.674;7.868;2022-11-27T06:46:11;2.90;1.00
9925;DHT22;5001;51.674;7.868;2022-11-27T06:48:42;2.90;1.00
9925;DHT22;5001;51.674;7.868;2022-11-27T06:51:10;3.00;1.00
9925;DHT22;5001;51.674;7.868;2022-11-27T06:53:38;3.00;1.00
9925;DHT22;5001;51.674;7.868;2022-11-27T06:56:07;3.10;1.00
9925;DHT22;5001;51.674;7.868;2022-11-27T06:58:35;3.10;1.00
9925;DHT22;5001;51.674;7.868;2022-11-27T07:01:05;3.10;1.00
9925;DHT22;5001;51.674;7.868;2022-11-27T07:03:33;3.10;1.00
9925;DHT22;5001;51.674;7.868;2022-11-27T07:06:01;3.10;1.00
9925;DHT22;5001;51.674;7.868;2022-11-27T07:08:29;3.00;1.00
9925;DHT22;5001;51.674;7.868;2022-11-27T07:11:27;3.10;1.00
9925;DHT22;5001;51.674;7.868;2022-11-27T07:13:57;3.10;1.00
9925;DHT22;5001;51.674;7.868;2022-11-27T07:16:25;3.10;1.00
9925;DHT22;5001;51.674;7.868;2022-11-27T07:18:56;3.30;1.00
9925;DHT22;5001;51.674;7.868;2022-11-27T07:21:23;3.30;1.00
9925;DHT22;5001;51.674;7.868;2022-11-27T07:23:50;3.30;1.00
9925;DHT22;5001;51.674;7.868;2022-11-27T07:26:20;3.40;1.00
9925;DHT22;5001;51.674;7.868;2022-11-27T07:28:48;3.50;1.00
9925;DHT22;5001;51.674;7.868;2022-11-27T07:31:21;3.50;1.00
9925;DHT22;5001;51.674;7.868;2022-11-27T07:33:49;3.60;1.00
9925;DHT22;5001;51.674;7.868;2022-11-27T07:36:21;3.60;1.00
9925;DHT22;5001;51.674;7.868;2022-11-27T07:38:48;3.80;1.00
9925;DHT22;5001;51.674;7.868;2022-11-27T07:41:15;3.80;1.00
9925;DHT22;5001;51.674;7.868;2022-11-27T07:43:43;3.90;1.00
9925;DHT22;5001;51.674;7.868;2022-11-27T07:46:16;4.10;1.00
9925;DHT22;5001;51.674;7.868;2022-11-27T07:48:43;4.20;1.00
9925;DHT22;5001;51.674;7.868;2022-11-27T07:51:13;4.40;1.00
9925;DHT22;5001;51.674;7.868;2022-11-27T07:53:40;4.50;1.00
9925;DHT22;5001;51.674;7.868;2022-11-27T07:56:10;4.70;1.00
9925;DHT22;5001;51.674;7.868;2022-11-27T07:58:37;5.20;1.00
9925;DHT22;5001;51.674;7.868;2022-11-27T08:01:09;5.40;1.00
9925;DHT22;5001;51.674;7.868;2022-11-27T08:03:36;5.50;1.00
9925;DHT22;5001;51.674;7.868;2022-11-27T08:06:11;5.60;1.00
9925;DHT22;5001;51.674;7.868;2022-11-27T08:08:39;5.90;1.00
9925;DHT22;5001;51.674;7.868;2022-11-27T08:11:14;6.10;1.00
9925;DHT22;5001;51.674;7.868;2022-11-27T08:13:41;6.20;1.00
9925;DHT22;5001;51.674;7.868;2022-11-27T08:16:08;6.20;1.00
9925;DHT22;5001;51.674;7.868;2022-11-27T08:18:35;6.40;1.00
9925;DHT22;5001;51.674;7.868;2022-11-27T08:21:02;6.40;1.00
9925;DHT22;5001;51.674;7.868;2022-11-27T08:23:29;6.40;1.00
9925;DHT22;5001;51.674;7.868;2022-11-27T08:25:56;6.40;1.00
9925;DHT22;5001;51.674;7.868;2022-11-27T08:28:23;6.40;1.00
9925;DHT22;5001;51.674;7.868;2022-11-27T08:30:57;6.40;1.00
9925;DHT22;5001;51.674;7.868;2022-11-27T08:33:24;6.40;1.00
9925;DHT22;5001;51.674;7.868;2022-11-27T08:35:51;6.60;1.00
9925;DHT22;5001;51.674;7.868;2022-11-27T08:38:18;6.60;1.00
9925;DHT22;5001;51.674;7.868;2022-11-27T08:40:53;6.70;1.00
9925;DHT22;5001;51.674;7.868;2022-11-27T08:43:21;6.90;1.00
9925;DHT22;5001;51.674;7.868;2022-11-27T08:45:48;7.10;1.00
9925;DHT22;5001;51.674;7.868;2022-11-27T08:48:16;7.20;1.00
9925;DHT22;5001;51.674;7.868;2022-11-27T08:50:43;7.40;1.00
9925;DHT22;5001;51.674;7.868;2022-11-27T08:53:10;7.50;1.00
9925;DHT22;5001;51.674;7.868;2022-11-27T08:55:37;7.70;1.00
9925;DHT22;5001;51.674;7.868;2022-11-27T08:58:04;7.60;1.00
9925;DHT22;5001;51.674;7.868;2022-11-27T09:00:32;7.60;1.00
9925;DHT22;5001;51.674;7.868;2022-11-27T09:03:00;7.60;1.00
9925;DHT22;5001;51.674;7.868;2022-11-27T09:05:28;7.80;1.00
9925;DHT22;5001;51.674;7.868;2022-11-27T09:07:55;7.90;1.00
9925;DHT22;5001;51.674;7.868;2022-11-27T09:10:22;8.00;1.00
9925;DHT22;5001;51.674;7.868;2022-11-27T09:12:50;8.30;1.00
9925;DHT22;5001;51.674;7.868;2022-11-27T09:15:17;8.60;1.00
9925;DHT22;5001;51.674;7.868;2022-11-27T09:17:44;9.10;1.00
9925;DHT22;5001;51.674;7.868;2022-11-27T09:20:11;11.00;1.00
9925;DHT22;5001;51.674;7.868;2022-11-27T09:22:40;16.20;1.00
9925;DHT22;5001;51.674;7.868;2022-11-27T09:25:07;19.50;1.00
9925;DHT22;5001;51.674;7.868;2022-11-27T09:27:36;20.30;1.00
9925;DHT22;5001;51.674;7.868;2022-11-27T09:30:05;19.00;1.00
9925;DHT22;5001;51.674;7.868;2022-11-27T09:32:33;18.80;1.00
9925;DHT22;5001;51.674;7.868;2022-11-27T09:35:00;15.80;1.00
9925;DHT22;5001;51.674;7.868;2022-11-27T09:37:27;15.30;1.00
9925;DHT22;5001;51.674;7.868;2022-11-27T09:39:54;14.30;1.00
9925;DHT22;5001;51.674;7.868;2022-11-27T09:42:35;11.70;1.00
9925;DHT22;5001;51.674;7.868;2022-11-27T09:45:06;10.50;1.00
9925;DHT22;5001;51.674;7.868;2022-11-27T09:47:40;10.20;1.00
9925;DHT22;5001;51.674;7.868;2022-11-27T09:50:28;9.80;1.00
9925;DHT22;5001;51.674;7.868;2022-11-27T09:53:16;10.00;1.00
9925;DHT22;5001;51.674;7.868;2022-11-27T09:55:48;9.70;1.00
9925;DHT22;5001;51.674;7.868;2022-11-27T09:58:38;9.70;1.00
9925;DHT22;5001;51.674;7.868;2022-11-27T10:01:16;9.60;1.00
9925;DHT22;5001;51.674;7.868;2022-11-27T10:03:44;9.40;1.00
9925;DHT22;5001;51.674;7.868;2022-11-27T10:14:26;9.80;1.00
9925;DHT22;5001;51.674;7.868;2022-11-27T10:17:16;9.90;1.00
9925;DHT22;5001;51.674;7.868;2022-11-27T10:20:01;9.90;1.00
9925;DHT22;5001;51.674;7.868;2022-11-27T10:22:45;10.00;1.00
9925;DHT22;5001;51.674;7.868;2022-11-27T10:25:24;9.90;1.00
9925;DHT22;5001;51.674;7.868;2022-11-27T10:31:01;9.90;1.00
9925;DHT22;5001;51.674;7.868;2022-11-27T10:33:41;9.80;1.00
9925;DHT22;5001;51.674;7.868;2022-11-27T10:36:38;9.70;1.00
9925;DHT22;5001;51.674;7.868;2022-11-27T10:39:16;9.80;1.00
9925;DHT22;5001;51.674;7.868;2022-11-27T10:41:50;9.80;1.00
9925;DHT22;5001;51.674;7.868;2022-11-27T10:47:01;9.80;1.00
9925;DHT22;5001;51.674;7.868;2022-11-27T10:49:29;9.80;1.00
9925;DHT22;5001;51.674;7.868;2022-11-27T10:51:57;9.70;1.00
9925;DHT22;5001;51.674;7.868;2022-11-27T10:54:34;9.70;1.00
9925;DHT22;5001;51.674;7.868;2022-11-27T11:02:38;9.80;1.00
9925;DHT22;5001;51.674;7.868;2022-11-27T11:05:25;9.90;1.00
9925;DHT22;5001;51.674;7.868;2022-11-27T11:08:17;10.00;1.00
9925;DHT22;5001;51.674;7.868;2022-11-27T11:13:21;10.10;1.00
9925;DHT22;5001;51.674;7.868;2022-11-27T11:18:26;10.20;1.00
9925;DHT22;5001;51.674;7.868;2022-11-27T11:20:56;10.10;1.00
9925;DHT22;5001;51.674;7.868;2022-11-27T11:23:29;10.10;1.00
9925;DHT22;5001;51.674;7.868;2022-11-27T11:26:04;10.00;1.00
9925;DHT22;5001;51.674;7.868;2022-11-27T11:28:35;10.00;1.00
9925;DHT22;5001;51.674;7.868;2022-11-27T11:31:15;10.00;1.00
9925;DHT22;5001;51.674;7.868;2022-11-27T11:33:50;9.90;1.00
9925;DHT22;5001;51.674;7.868;2022-11-27T11:36:17;10.00;1.00
9925;DHT22;5001;51.674;7.868;2022-11-27T11:38:46;9.90;1.00
9925;DHT22;5001;51.674;7.868;2022-11-27T11:41:13;10.00;1.00
9925;DHT22;5001;51.674;7.868;2022-11-27T11:44:00;9.90;1.00
9925;DHT22;5001;51.674;7.868;2022-11-27T11:46:31;10.00;1.00
9925;DHT22;5001;51.674;7.868;2022-11-27T11:49:00;9.90;1.00
9925;DHT22;5001;51.674;7.868;2022-11-27T12:05:28;10.00;1.00
9925;DHT22;5001;51.674;7.868;2022-11-27T12:08:00;10.00;1.00
9925;DHT22;5001;51.674;7.868;2022-11-27T12:10:56;10.00;1.00
9925;DHT22;5001;51.674;7.868;2022-11-27T12:13:38;10.00;1.00
9925;DHT22;5001;51.674;7.868;2022-11-27T12:16:34;10.00;1.00
9925;DHT22;5001;51.674;7.868;2022-11-27T12:28:04;10.30;1.00
9925;DHT22;5001;51.674;7.868;2022-11-27T12:30:48;10.30;1.00
9925;DHT22;5001;51.674;7.868;2022-11-27T12:33:40;10.30;1.00
9925;DHT22;5001;51.674;7.868;2022-11-27T12:47:14;10.20;1.00
9925;DHT22;5001;51.674;7.868;2022-11-27T12:49:46;10.20;1.00
9925;DHT22;5001;51.674;7.868;2022-11-27T12:52:23;10.20;1.00
9925;DHT22;5001;51.674;7.868;2022-11-27T12:55:01;10.30;1.00
9925;DHT22;5001;51.674;7.868;2022-11-27T12:57:50;10.30;1.00
9925;DHT22;5001;51.674;7.868;2022-11-27T13:00:23;10.30;1.00
9925;DHT22;5001;51.674;7.868;2022-11-27T13:05:47;10.30;1.00
9925;DHT22;5001;51.674;7.868;2022-11-27T13:13:34;10.30;1.00
9925;DHT22;5001;51.674;7.868;2022-11-27T13:18:52;10.20;1.00
9925;DHT22;5001;51.674;7.868;2022-11-27T13:21:23;10.20;1.00
9925;DHT22;5001;51.674;7.868;2022-11-27T13:23:51;10.20;1.00
9925;DHT22;5001;51.674;7.868;2022-11-27T13:26:25;10.20;1.00
9925;DHT22;5001;51.674;7.868;2022-11-27T13:29:17;10.20;1.00
9925;DHT22;5001;51.674;7.868;2022-11-27T13:31:51;10.20;1.00
9925;DHT22;5001;51.674;7.868;2022-11-27T13:34:21;10.20;1.00
9925;DHT22;5001;51.674;7.868;2022-11-27T13:37:03;10.30;1.00
9925;DHT22;5001;51.674;7.868;2022-11-27T13:39:35;10.30;1.00
9925;DHT22;5001;51.674;7.868;2022-11-27T13:44:44;10.10;1.00
9925;DHT22;5001;51.674;7.868;2022-11-27T13:47:19;10.10;1.00
9925;DHT22;5001;51.674;7.868;2022-11-27T13:49:57;10.10;1.00
9925;DHT22;5001;51.674;7.868;2022-11-27T13:52:26;10.10;1.00
9925;DHT22;5001;51.674;7.868;2022-11-27T13:54:55;10.00;1.00
9925;DHT22;5001;51.674;7.868;2022-11-27T13:57:24;10.00;1.00
9925;DHT22;5001;51.674;7.868;2022-11-27T14:00:12;10.00;1.00
9925;DHT22;5001;51.674;7.868;2022-11-27T14:02:48;10.00;1.00
9925;DHT22;5001;51.674;7.868;2022-11-27T14:05:18;10.00;1.00
9925;DHT22;5001;51.674;7.868;2022-11-27T14:07:50;10.00;1.00
9925;DHT22;5001;51.674;7.868;2022-11-27T14:10:27;10.00;1.00
9925;DHT22;5001;51.674;7.868;2022-11-27T14:15:29;9.90;1.00
9925;DHT22;5001;51.674;7.868;2022-11-27T14:20:35;10.10;1.00
9925;DHT22;5001;51.674;7.868;2022-11-27T14:23:03;10.10;1.00
9925;DHT22;5001;51.674;7.868;2022-11-27T14:25:38;10.10;1.00
9925;DHT22;5001;51.674;7.868;2022-11-27T14:33:17;10.10;1.00
9925;DHT22;5001;51.674;7.868;2022-11-27T14:35:50;10.10;1.00
9925;DHT22;5001;51.674;7.868;2022-11-27T14:38:17;10.20;1.00
9925;DHT22;5001;51.674;7.868;2022-11-27T14:40:45;10.10;1.00
9925;DHT22;5001;51.674;7.868;2022-11-27T14:43:21;10.10;1.00
9925;DHT22;5001;51.674;7.868;2022-11-27T14:45:52;10.00;1.00
9925;DHT22;5001;51.674;7.868;2022-11-27T14:48:24;9.90;1.00
9925;DHT22;5001;51.674;7.868;2022-11-27T14:50:53;9.80;1.00
9925;DHT22;5001;51.674;7.868;2022-11-27T14:53:23;9.70;1.00
9925;DHT22;5001;51.674;7.868;2022-11-27T14:55:54;9.60;1.00
9925;DHT22;5001;51.674;7.868;2022-11-27T14:58:27;9.50;1.00
9925;DHT22;5001;51.674;7.868;2022-11-27T15:01:04;9.40;1.00
9925;DHT22;5001;51.674;7.868;2022-11-27T15:03:32;9.50;1.00
9925;DHT22;5001;51.674;7.868;2022-11-27T15:06:04;9.50;1.00
9925;DHT22;5001;51.674;7.868;2022-11-27T15:08:34;9.50;1.00
9925;DHT22;5001;51.674;7.868;2022-11-27T15:11:03;9.60;1.00
9925;DHT22;5001;51.674;7.868;2022-11-27T15:13:35;9.70;1.00
9925;DHT22;5001;51.674;7.868;2022-11-27T15:16:15;9.70;1.00
9925;DHT22;5001;51.674;7.868;2022-11-27T15:18:48;9.60;1.00
9925;DHT22;5001;51.674;7.868;2022-11-27T15:21:19;9.50;1.00
9925;DHT22;5001;51.674;7.868;2022-11-27T15:23:50;9.40;1.00
9925;DHT22;5001;51.674;7.868;2022-11-27T15:26:34;9.30;1.00
9925;DHT22;5001;51.674;7.868;2022-11-27T15:29:02;9.20;1.00
9925;DHT22;5001;51.674;7.868;2022-11-27T15:31:36;9.10;1.00
9925;DHT22;5001;51.674;7.868;2022-11-27T15:36:47;9.00;1.00
9925;DHT22;5001;51.674;7.868;2022-11-27T15:41:56;8.90;1.00
9925;DHT22;5001;51.674;7.868;2022-11-27T15:44:25;8.80;1.00
9925;DHT22;5001;51.674;7.868;2022-11-27T15:46:54;8.80;1.00
9925;DHT22;5001;51.674;7.868;2022-11-27T15:49:22;8.70;1.00
9925;DHT22;5001;51.674;7.868;2022-11-27T15:51:49;8.70;1.00
9925;DHT22;5001;51.674;7.868;2022-11-27T15:54:16;8.80;1.00
9925;DHT22;5001;51.674;7.868;2022-11-27T15:56:43;8.90;1.00
9925;DHT22;5001;51.674;7.868;2022-11-27T15:59:13;9.20;1.00
9925;DHT22;5001;51.674;7.868;2022-11-27T16:01:40;9.30;1.00
9925;DHT22;5001;51.674;7.868;2022-11-27T16:04:07;9.20;1.00
9925;DHT22;5001;51.674;7.868;2022-11-27T16:06:37;9.20;1.00
9925;DHT22;5001;51.674;7.868;2022-11-27T16:09:04;9.20;1.00
9925;DHT22;5001;51.674;7.868;2022-11-27T16:11:31;9.20;1.00
9925;DHT22;5001;51.674;7.868;2022-11-27T16:13:58;9.10;1.00
9925;DHT22;5001;51.674;7.868;2022-11-27T16:16:26;9.10;1.00
9925;DHT22;5001;51.674;7.868;2022-11-27T16:19:01;9.20;1.00
9925;DHT22;5001;51.674;7.868;2022-11-27T16:21:28;9.10;1.00
9925;DHT22;5001;51.674;7.868;2022-11-27T16:23:58;9.10;1.00
9925;DHT22;5001;51.674;7.868;2022-11-27T16:26:26;9.10;1.00
9925;DHT22;5001;51.674;7.868;2022-11-27T16:28:54;9.20;1.00
9925;DHT22;5001;51.674;7.868;2022-11-27T16:31:22;9.10;1.00
9925;DHT22;5001;51.674;7.868;2022-11-27T16:33:49;9.00;1.00
9925;DHT22;5001;51.674;7.868;2022-11-27T16:36:19;9.10;1.00
9925;DHT22;5001;51.674;7.868;2022-11-27T16:38:47;9.10;1.00
9925;DHT22;5001;51.674;7.868;2022-11-27T16:41:17;9.10;1.00
9925;DHT22;5001;51.674;7.868;2022-11-27T16:43:47;9.10;1.00
9925;DHT22;5001;51.674;7.868;2022-11-27T16:48:45;9.00;1.00
9925;DHT22;5001;51.674;7.868;2022-11-27T16:51:21;9.00;1.00
9925;DHT22;5001;51.674;7.868;2022-11-27T16:53:50;8.90;1.00
9925;DHT22;5001;51.674;7.868;2022-11-27T16:56:20;9.00;1.00
9925;DHT22;5001;51.674;7.868;2022-11-27T16:58:51;8.90;1.00
9925;DHT22;5001;51.674;7.868;2022-11-27T17:01:31;8.80;1.00
9925;DHT22;5001;51.674;7.868;2022-11-27T17:04:00;8.70;1.00
9925;DHT22;5001;51.674;7.868;2022-11-27T17:06:31;8.60;1.00
9925;DHT22;5001;51.674;7.868;2022-11-27T17:08:59;8.50;1.00
9925;DHT22;5001;51.674;7.868;2022-11-27T17:11:28;8.50;1.00
9925;DHT22;5001;51.674;7.868;2022-11-27T17:13:58;8.40;1.00
9925;DHT22;5001;51.674;7.868;2022-11-27T17:16:26;8.40;1.00
9925;DHT22;5001;51.674;7.868;2022-11-27T17:18:53;8.40;1.00
9925;DHT22;5001;51.674;7.868;2022-11-27T17:21:32;8.30;1.00
9925;DHT22;5001;51.674;7.868;2022-11-27T17:24:05;8.20;1.00
9925;DHT22;5001;51.674;7.868;2022-11-27T17:26:40;8.20;1.00
9925;DHT22;5001;51.674;7.868;2022-11-27T17:29:12;8.20;1.00
9925;DHT22;5001;51.674;7.868;2022-11-27T17:31:39;8.30;1.00
9925;DHT22;5001;51.674;7.868;2022-11-27T17:34:08;8.30;1.00
9925;DHT22;5001;51.674;7.868;2022-11-27T17:36:36;8.30;1.00
9925;DHT22;5001;51.674;7.868;2022-11-27T17:39:05;8.30;1.00
9925;DHT22;5001;51.674;7.868;2022-11-27T17:41:32;8.40;1.00
9925;DHT22;5001;51.674;7.868;2022-11-27T17:44:04;8.40;1.00
9925;DHT22;5001;51.674;7.868;2022-11-27T17:46:32;8.40;1.00
9925;DHT22;5001;51.674;7.868;2022-11-27T17:49:03;8.40;1.00
9925;DHT22;5001;51.674;7.868;2022-11-27T17:51:31;8.40;1.00
9925;DHT22;5001;51.674;7.868;2022-11-27T17:54:00;8.40;1.00
9925;DHT22;5001;51.674;7.868;2022-11-27T17:56:31;8.40;1.00
9925;DHT22;5001;51.674;7.868;2022-11-27T17:58:58;8.40;1.00
9925;DHT22;5001;51.674;7.868;2022-11-27T18:01:26;8.40;1.00
9925;DHT22;5001;51.674;7.868;2022-11-27T18:03:56;8.30;1.00
9925;DHT22;5001;51.674;7.868;2022-11-27T18:06:28;8.30;1.00
9925;DHT22;5001;51.674;7.868;2022-11-27T18:08:56;8.20;1.00
9925;DHT22;5001;51.674;7.868;2022-11-27T18:11:27;8.20;1.00
9925;DHT22;5001;51.674;7.868;2022-11-27T18:13:57;8.20;1.00
9925;DHT22;5001;51.674;7.868;2022-11-27T18:16:28;8.10;1.00
9925;DHT22;5001;51.674;7.868;2022-11-27T18:19:00;8.00;1.00
9925;DHT22;5001;51.674;7.868;2022-11-27T18:21:28;8.00;1.00
9925;DHT22;5001;51.674;7.868;2022-11-27T18:23:57;8.00;1.00
9925;DHT22;5001;51.674;7.868;2022-11-27T18:26:44;8.00;1.00
9925;DHT22;5001;51.674;7.868;2022-11-27T18:29:33;7.90;1.00
9925;DHT22;5001;51.674;7.868;2022-11-27T18:32:00;7.80;1.00
9925;DHT22;5001;51.674;7.868;2022-11-27T18:34:27;7.70;1.00
9925;DHT22;5001;51.674;7.868;2022-11-27T18:36:54;7.80;1.00
9925;DHT22;5001;51.674;7.868;2022-11-27T18:39:23;7.70;1.00
9925;DHT22;5001;51.674;7.868;2022-11-27T18:41:50;7.70;1.00
9925;DHT22;5001;51.674;7.868;2022-11-27T18:44:17;7.60;1.00
9925;DHT22;5001;51.674;7.868;2022-11-27T18:46:44;7.60;1.00
9925;DHT22;5001;51.674;7.868;2022-11-27T18:49:11;7.50;1.00
9925;DHT22;5001;51.674;7.868;2022-11-27T18:51:39;7.50;1.00
9925;DHT22;5001;51.674;7.868;2022-11-27T18:54:07;7.40;1.00